Ana Sayfa
METAR-TAF:

METAR-TAF

Havaalanları :

Lazkiye Havaalanı

Lazkiye, Suriye

Enlem: 35-32N, Boylam: 035-46E, yükseklik: 7 m

Güncel hava durumu gözlemi

Rapor saat 00:00 UTC de 1 saat ve 2 dakika önce yapıldı.
Rüzgar doğu/kuzeydoğudan 4 kt
Sıcaklık 7°C
Nem 93%
Basınç 1020 hPa
Görüş mesafesi 10 km veya daha fazla
2600 ft yükseklikte az bulutlu
3000 ft yükseklikte parçalı bulutlu

METAR: OSLK 200000Z 06004KT 9999 FEW026 SCT030 07/06 Q1020

Saat: 03:02 (01:02 UTC)

Tahmin

Ayın 20'si saat 00 UTC'den ayın 20'si saat 24 UTC'ye kadar geçerli Tahmin
Rüzgar doğu/güneydoğudan 5 kt
Görüş mesafesi: 3000 m
3000 ft yükseklikte parçalı bulutlu
Pus
Dönüşüyor
ayın 20'si saat 15 UTC'den ayın 20'si saat 18 UTC'ye kadar
Rüzgar güneydan 10 kt
Görüş mesafesi: 5000 m
2500 ft yükseklikte az bulutlu
3000 ft yükseklikte parçalı bulutlu
10000 ft yükseklikte parçalı çok bulutlu
sağanak yağmurlar

TAF: OSLK 2000/2024 12005KT 3000 BR SCT030 BECMG 2015/2018 18010KT 5000 SHRA FEW025 CB SCT030 BKN100

4.000'den fazla havaalanı için hava durumu gözlemleri ve tahminleri (METAR ve TAF raporları).

Kullanılabilir istasyonlar harita üzerinde sarı ve kırmızı noktalarla gösterilir.

İstasyonun adını görmek için fareyi noktanın üzerinde gezdirin.

Sonrasında hava gözlem ve tahminlerini görmek için tıklayın.

Haritayı değiştirmek için: yaklaştırmak için siyah artı işaretli yeşil düğmeye ve uzaklaştırmak için de eksi işaretli düğmeye hızla tıklayın; bitişik haritalar için yeşil okları kullanın.


METAR-TAF: